createdAt,value
2023-02-04T00:00:22.186Z,97470.00
2023-02-04T00:03:27.839Z,97457.88
2023-02-04T00:06:34.683Z,97445.06
2023-02-04T00:09:42.911Z,97448.34
2023-02-04T00:12:49.171Z,97430.56
2023-02-04T00:15:54.920Z,97416.94
2023-02-04T00:19:01.198Z,97447.56
2023-02-04T00:22:07.893Z,97425.69
2023-02-04T00:25:18.023Z,97445.63
2023-02-04T00:28:23.359Z,97439.72
2023-02-04T00:31:29.637Z,97447.41
2023-02-04T00:34:35.270Z,97438.16
2023-02-04T00:37:42.454Z,97436.34
2023-02-04T00:40:50.805Z,97434.66
2023-02-04T00:43:57.961Z,97440.84
2023-02-04T00:47:03.377Z,97444.91
2023-02-04T00:50:10.614Z,97455.44
2023-02-04T00:53:16.036Z,97465.81
2023-02-04T00:56:25.094Z,97443.09
2023-02-04T00:59:30.577Z,97447.50
2023-02-04T01:02:36.989Z,97437.81
2023-02-04T01:05:42.643Z,97438.97
2023-02-04T01:08:50.467Z,97426.47
2023-02-04T01:11:58.618Z,97414.78
2023-02-04T01:15:04.824Z,97424.38
2023-02-04T01:18:10.177Z,97418.34
2023-02-04T01:21:17.611Z,97409.31
2023-02-04T01:24:22.964Z,97421.09
2023-02-04T01:28:15.788Z,97406.44
2023-02-04T01:31:21.530Z,97427.16
2023-02-04T01:34:28.529Z,97411.38
2023-02-04T01:37:34.273Z,97406.84
2023-02-04T01:40:41.525Z,97432.00
2023-02-04T01:43:50.925Z,97444.91
2023-02-04T01:46:58.483Z,97462.97
2023-02-04T01:50:04.443Z,97459.47
2023-02-04T01:53:11.019Z,97464.25
2023-02-04T01:56:22.743Z,97462.97
2023-02-04T01:59:32.623Z,97467.50
2023-02-04T02:02:45.783Z,97478.00
2023-02-04T02:05:57.126Z,97483.09
2023-02-04T02:09:05.762Z,97477.06
2023-02-04T02:12:12.127Z,97462.09
2023-02-04T02:15:21.663Z,97494.72
2023-02-04T02:18:29.681Z,97503.03
2023-02-04T02:21:47.012Z,97557.84
2023-02-04T02:24:58.093Z,97552.22
2023-02-04T02:28:07.910Z,97515.25
2023-02-04T02:31:14.746Z,97514.94
2023-02-04T02:34:20.796Z,97526.38
2023-02-04T02:37:27.760Z,97536.34
2023-02-04T02:40:36.123Z,97540.06
2023-02-04T02:43:43.398Z,97538.16
2023-02-04T02:46:49.581Z,97546.34
2023-02-04T02:49:58.322Z,97565.47
2023-02-04T02:53:04.424Z,97548.50
2023-02-04T02:56:14.262Z,97561.91
2023-02-04T02:59:22.003Z,97550.31
2023-02-04T03:02:28.926Z,97561.34
2023-02-04T03:05:42.951Z,97577.47
2023-02-04T03:08:55.432Z,97562.91
2023-02-04T03:12:03.846Z,97555.38
2023-02-04T03:15:11.176Z,97568.84
2023-02-04T03:18:23.045Z,97571.88
2023-02-04T03:21:29.895Z,97585.75
2023-02-04T03:24:35.930Z,97610.69
2023-02-04T03:27:45.643Z,97587.50
2023-02-04T03:30:53.956Z,97590.84
2023-02-04T03:34:00.613Z,97606.53
2023-02-04T03:37:05.998Z,97625.63
2023-02-04T03:40:14.143Z,97643.81
2023-02-04T03:43:22.362Z,97642.63
2023-02-04T03:46:29.025Z,97644.31
2023-02-04T03:49:36.038Z,97669.13
2023-02-04T03:52:42.285Z,97692.56
2023-02-04T03:55:47.605Z,97699.75
2023-02-04T03:58:56.577Z,97719.94
2023-02-04T04:02:02.074Z,97726.09
2023-02-04T04:05:09.347Z,97775.00
2023-02-04T04:08:14.784Z,97792.38
2023-02-04T04:11:22.162Z,97882.78
2023-02-04T04:14:30.333Z,97855.31
2023-02-04T04:17:36.856Z,97843.56
2023-02-04T04:20:42.531Z,97883.88
2023-02-04T04:23:49.097Z,97905.53
2023-02-04T04:26:54.452Z,97917.66
2023-02-04T04:30:03.552Z,97935.31
2023-02-04T04:33:08.937Z,97960.78
2023-02-04T04:36:15.247Z,98033.38
2023-02-04T04:39:20.650Z,98037.19
2023-02-04T04:42:26.996Z,98020.91
2023-02-04T04:45:35.225Z,98047.63
2023-02-04T04:48:42.186Z,98107.66
2023-02-04T04:51:47.577Z,98027.44
2023-02-04T04:54:53.762Z,98114.00
2023-02-04T04:57:59.453Z,98115.94
2023-02-04T05:01:08.470Z,98113.19
2023-02-04T05:04:13.868Z,98144.09
2023-02-04T05:07:20.238Z,98188.38
2023-02-04T05:10:25.586Z,98165.97
2023-02-04T05:13:31.854Z,98195.81
2023-02-04T05:16:40.314Z,98273.41
2023-02-04T05:19:46.509Z,98264.16
2023-02-04T05:22:51.898Z,98253.88
2023-02-04T05:25:58.213Z,98253.72
2023-02-04T05:29:03.501Z,98252.16
2023-02-04T05:32:12.947Z,98329.91
2023-02-04T05:35:18.339Z,98352.03
2023-02-04T05:38:24.589Z,98384.56
2023-02-04T05:41:30.003Z,98378.50
2023-02-04T05:44:36.485Z,98427.72
2023-02-04T05:47:44.746Z,98405.28
2023-02-04T05:50:51.167Z,98445.91
2023-02-04T05:53:56.505Z,98471.59
2023-02-04T05:57:02.866Z,98450.19
2023-02-04T06:00:10.704Z,98473.31
2023-02-04T06:03:22.862Z,98572.25
2023-02-04T06:06:28.254Z,98522.31
2023-02-04T06:09:34.635Z,98524.03
2023-02-04T06:12:40.045Z,98554.00
2023-02-04T06:15:46.264Z,98587.53
2023-02-04T06:18:54.423Z,98584.91
2023-02-04T06:22:00.907Z,98615.94
2023-02-04T06:25:06.312Z,98643.47
2023-02-04T06:28:12.730Z,98637.53
2023-02-04T06:31:18.481Z,98646.69
2023-02-04T06:34:27.520Z,98702.69
2023-02-04T06:37:33.034Z,98703.50
2023-02-04T06:40:39.504Z,98685.47
2023-02-04T06:43:44.935Z,98718.16
2023-02-04T06:46:51.246Z,98726.69
2023-02-04T06:50:00.190Z,98733.56
2023-02-04T06:53:06.890Z,98817.00
2023-02-04T06:56:12.715Z,98760.28
2023-02-04T06:59:18.966Z,98804.13
2023-02-04T07:02:24.962Z,98804.22
2023-02-04T07:05:48.030Z,98810.25
2023-02-04T07:09:08.642Z,98829.91
2023-02-04T07:12:29.134Z,98869.47
2023-02-04T07:15:49.954Z,98872.78
2023-02-04T07:19:10.504Z,98875.38
2023-02-04T07:22:36.431Z,98887.41
2023-02-04T07:25:57.593Z,98897.72
2023-02-04T07:29:25.132Z,98901.94
2023-02-04T07:32:46.316Z,98910.47
2023-02-04T07:36:07.235Z,98926.75
2023-02-04T07:39:30.368Z,98927.66
2023-02-04T07:42:50.925Z,98932.81
2023-02-04T07:46:15.196Z,98946.63
2023-02-04T07:49:35.616Z,98967.25
2023-02-04T07:52:55.996Z,98965.59
2023-02-04T07:56:19.081Z,98975.91
2023-02-04T07:59:39.391Z,98990.53
2023-02-04T08:02:59.788Z,99001.63
2023-02-04T08:06:23.138Z,99005.03
2023-02-04T08:09:47.307Z,99010.19
2023-02-04T08:13:10.459Z,99013.56
2023-02-04T08:16:30.794Z,99023.00
2023-02-04T08:19:51.204Z,99035.84
2023-02-04T08:23:11.574Z,99047.94
2023-02-04T08:26:32.248Z,99065.03
2023-02-04T08:29:55.554Z,99090.78
2023-02-04T08:33:15.865Z,99094.22
2023-02-04T08:36:46.706Z,99099.28
2023-02-04T08:40:10.411Z,99149.22
2023-02-04T08:43:31.284Z,99135.47
2023-02-04T08:46:54.418Z,99129.31
2023-02-04T08:50:14.978Z,99132.75
2023-02-04T08:53:35.316Z,99124.19
2023-02-04T08:56:55.818Z,99134.47
2023-02-04T09:00:18.531Z,99144.72
2023-02-04T09:03:42.260Z,99148.19
2023-02-04T09:07:02.612Z,99150.75
2023-02-04T09:10:23.112Z,99160.22
2023-02-04T09:13:43.435Z,99156.78
2023-02-04T09:17:04.374Z,99180.91
2023-02-04T09:20:27.474Z,99177.47
2023-02-04T09:23:48.856Z,99194.69
2023-02-04T09:27:09.344Z,99243.88
2023-02-04T09:30:29.938Z,99227.53
2023-02-04T09:33:50.416Z,99264.63
2023-02-04T09:37:13.559Z,99225.94
2023-02-04T09:40:39.521Z,99242.22
2023-02-04T09:43:59.970Z,99248.28
2023-02-04T09:47:27.611Z,99254.28
2023-02-04T09:50:48.841Z,99321.44
2023-02-04T09:54:18.348Z,99294.75
2023-02-04T09:57:38.991Z,99299.88
2023-02-04T10:01:05.249Z,99337.78
2023-02-04T10:04:29.149Z,99265.47
2023-02-04T10:07:50.142Z,99299.00
2023-02-04T10:11:15.269Z,99310.13
2023-02-04T10:14:35.767Z,99298.94
2023-02-04T10:18:04.653Z,99285.13
2023-02-04T10:21:32.527Z,99286.03
2023-02-04T10:24:52.886Z,99330.78
2023-02-04T10:28:16.307Z,99319.59
2023-02-04T10:31:51.950Z,99330.06
2023-02-04T10:35:20.211Z,99341.22
2023-02-04T10:38:40.570Z,99338.66
2023-02-04T10:42:03.954Z,99342.09
2023-02-04T10:45:33.703Z,99318.81
2023-02-04T10:48:54.009Z,99349.00
2023-02-04T10:52:21.810Z,99336.09
2023-02-04T10:55:45.807Z,99335.16
2023-02-04T10:59:06.185Z,99346.41
2023-02-04T11:02:46.984Z,99362.75
2023-02-04T11:06:17.463Z,99331.81
2023-02-04T11:09:37.939Z,99356.72
2023-02-04T11:13:07.992Z,99365.28
2023-02-04T11:16:30.584Z,99349.84
2023-02-04T11:19:53.706Z,99365.31
2023-02-04T11:23:40.433Z,99378.25
2023-02-04T11:27:22.288Z,99367.06
2023-02-04T11:30:42.699Z,99399.78
2023-02-04T11:34:28.161Z,99399.78
2023-02-04T11:37:51.810Z,99361.06
2023-02-04T11:41:26.910Z,99385.13
2023-02-04T11:45:01.325Z,99422.16
2023-02-04T11:48:24.436Z,99387.69
2023-02-04T11:51:45.377Z,99399.72
2023-02-04T11:55:09.037Z,99447.09
2023-02-04T11:58:32.943Z,99386.91
2023-02-04T12:01:53.219Z,99448.81
2023-02-04T12:05:17.114Z,99444.50
2023-02-04T12:08:39.537Z,99383.41
2023-02-04T12:12:10.609Z,99421.22
2023-02-04T12:15:38.511Z,99422.97
2023-02-04T12:18:59.248Z,99434.13
2023-02-04T12:22:19.768Z,99407.41
2023-02-04T12:25:42.864Z,99451.31
2023-02-04T12:29:06.057Z,99435.81
2023-02-04T12:32:26.503Z,99461.66
2023-02-04T12:35:46.988Z,99446.22
2023-02-04T12:39:07.536Z,99442.78
2023-02-04T12:42:27.878Z,99447.97
2023-02-04T12:45:50.967Z,99454.00
2023-02-04T12:49:11.285Z,99457.44
2023-02-04T12:52:34.493Z,99478.13
2023-02-04T12:55:57.008Z,99466.03
2023-02-04T12:59:18.139Z,99449.69
2023-02-04T13:02:41.253Z,99455.72
2023-02-04T13:06:01.643Z,99457.44
2023-02-04T13:09:22.357Z,99497.03
2023-02-04T13:12:43.328Z,99484.97
2023-02-04T13:16:03.778Z,99468.66
2023-02-04T13:19:26.872Z,99485.84
2023-02-04T13:22:47.186Z,99478.94
2023-02-04T13:26:09.289Z,99484.13
2023-02-04T13:29:30.127Z,99512.50
2023-02-04T13:32:50.552Z,99531.47
2023-02-04T13:36:16.514Z,99487.56
2023-02-04T13:39:36.922Z,99534.06
2023-02-04T13:42:57.198Z,99516.00
2023-02-04T13:46:17.554Z,99512.53
2023-02-04T13:49:40.737Z,99514.25
2023-02-04T13:53:08.864Z,99535.75
2023-02-04T13:56:29.313Z,99540.91
2023-02-04T13:59:49.633Z,99529.75
2023-02-04T14:03:09.913Z,99540.91
2023-02-04T14:06:34.016Z,99536.59
2023-02-04T14:09:59.024Z,99528.84
2023-02-04T14:13:19.336Z,99566.69
2023-02-04T14:16:42.776Z,99517.66
2023-02-04T14:20:03.209Z,99551.22
2023-02-04T14:23:29.275Z,99561.56
2023-02-04T14:26:52.669Z,99547.81
2023-02-04T14:30:20.677Z,99546.94
2023-02-04T14:33:43.717Z,99559.00
2023-02-04T14:37:04.050Z,99555.53
2023-02-04T14:40:24.511Z,99551.25
2023-02-04T14:43:47.588Z,99554.69
2023-02-04T14:47:07.943Z,99553.84
2023-02-04T14:50:28.902Z,99555.59
2023-02-04T14:53:49.830Z,99565.91
2023-02-04T14:57:12.177Z,99569.34
2023-02-04T15:00:35.386Z,99564.16
2023-02-04T15:03:58.956Z,99579.59
2023-02-04T15:07:19.555Z,99581.31
2023-02-04T15:10:41.671Z,99598.47
2023-02-04T15:14:02.320Z,99593.31
2023-02-04T15:17:25.449Z,99601.03
2023-02-04T15:20:45.803Z,99597.59
2023-02-04T15:24:06.136Z,99611.28
2023-02-04T15:27:26.482Z,99596.69
2023-02-04T15:30:46.925Z,99595.81
2023-02-04T15:34:10.027Z,99574.28
2023-02-04T15:37:30.410Z,99610.47
2023-02-04T15:40:50.903Z,99608.75
2023-02-04T15:44:12.293Z,99597.56
2023-02-04T15:47:32.614Z,99611.34
2023-02-04T15:50:55.711Z,99607.06
2023-02-04T15:54:16.201Z,99610.53
2023-02-04T15:57:36.823Z,99606.25
2023-02-04T16:00:57.630Z,99614.81
2023-02-04T16:04:21.009Z,99619.16
2023-02-04T16:07:44.111Z,99617.44
2023-02-04T16:11:05.954Z,99632.06
2023-02-04T16:14:26.516Z,99636.38
2023-02-04T16:17:47.993Z,99641.47
2023-02-04T16:21:08.837Z,99660.25
2023-02-04T16:24:32.029Z,99651.59
2023-02-04T16:27:52.439Z,99661.94
2023-02-04T16:31:15.858Z,99658.47
2023-02-04T16:34:36.185Z,99661.94
2023-02-04T16:37:56.639Z,99646.44
2023-02-04T16:41:22.686Z,99654.25
2023-02-04T16:44:43.006Z,99651.66
2023-02-04T16:48:03.589Z,99654.31
2023-02-04T16:51:25.058Z,99657.72
2023-02-04T16:54:45.376Z,99651.72
2023-02-04T16:58:08.489Z,99653.47
2023-02-04T17:01:28.850Z,99648.31
2023-02-04T17:04:49.440Z,99656.94
2023-02-04T17:08:13.551Z,99654.38
2023-02-04T17:11:37.461Z,99660.38
2023-02-04T17:15:03.789Z,99655.22
2023-02-04T17:18:24.138Z,99664.69
2023-02-04T17:21:44.775Z,99662.06
2023-02-04T17:25:05.138Z,99662.06
2023-02-04T17:28:26.376Z,99663.72
2023-02-04T17:31:49.536Z,99663.75
2023-02-04T17:35:11.099Z,99665.47
2023-02-04T17:38:31.883Z,99672.31
2023-02-04T17:41:52.173Z,99668.94
2023-02-04T17:45:14.365Z,99670.59
2023-02-04T17:48:37.735Z,99683.53
2023-02-04T17:51:58.061Z,99680.94
2023-02-04T17:55:27.778Z,99683.50
2023-02-04T17:58:48.220Z,99686.09
2023-02-04T18:02:27.402Z,99687.81
2023-02-04T18:05:53.595Z,99687.81
2023-02-04T18:09:20.079Z,99658.44
2023-02-04T18:12:40.701Z,99692.09
2023-02-04T18:16:04.032Z,99692.94
2023-02-04T18:19:35.577Z,99703.25
2023-02-04T18:23:06.227Z,99704.94
2023-02-04T18:26:28.744Z,99687.78
2023-02-04T18:29:52.857Z,99690.38
2023-02-04T18:33:23.579Z,99692.09
2023-02-04T18:36:43.936Z,99701.63
2023-02-04T18:40:28.520Z,99698.16
2023-02-04T18:43:53.707Z,99691.34
2023-02-04T18:47:32.735Z,99699.06
2023-02-04T18:50:56.304Z,99704.16
2023-02-04T18:54:39.147Z,99710.19
2023-02-04T18:58:32.425Z,99694.72
2023-02-04T19:01:52.846Z,99696.44
2023-02-04T19:05:31.153Z,99699.91
2023-02-04T19:08:51.511Z,99700.75
2023-02-04T19:12:24.410Z,99679.19
2023-02-04T19:16:01.396Z,99710.19
2023-02-04T19:19:52.990Z,99717.03
2023-02-04T19:23:21.194Z,99729.06
2023-02-04T19:26:50.780Z,99726.41
2023-02-04T19:30:51.083Z,99722.88
2023-02-04T19:34:31.122Z,99718.34
2023-02-04T19:38:00.678Z,99727.88
2023-02-04T19:41:31.016Z,99715.00
2023-02-04T19:44:51.791Z,99735.56
2023-02-04T19:48:25.559Z,99721.75
2023-02-04T19:51:56.017Z,99738.91
2023-02-04T19:55:38.278Z,99714.06
2023-02-04T19:58:58.901Z,99739.78
2023-02-04T20:02:39.145Z,99737.97
2023-02-04T20:06:10.544Z,99743.94
2023-02-04T20:09:38.076Z,99732.00
2023-02-04T20:13:03.647Z,99723.38
2023-02-04T20:16:42.638Z,99747.41
2023-02-04T20:20:27.938Z,99757.78
2023-02-04T20:23:48.306Z,99766.28
2023-02-04T20:27:23.364Z,99767.22
2023-02-04T20:30:47.901Z,99762.06
2023-02-04T20:34:23.334Z,99773.28
2023-02-04T20:37:45.548Z,99812.59
2023-02-04T20:41:21.962Z,99768.66
2023-02-04T20:44:47.102Z,99790.97
2023-02-04T20:48:35.391Z,99799.53
2023-02-04T20:52:03.205Z,99796.97
2023-02-04T20:55:30.813Z,99796.19
2023-02-04T20:58:51.295Z,99793.66
2023-02-04T21:02:21.651Z,99797.09
2023-02-04T21:05:44.549Z,99792.06
2023-02-04T21:09:08.822Z,99788.78
2023-02-04T21:12:32.253Z,99794.78
2023-02-04T21:15:53.815Z,99787.03
2023-02-04T21:19:17.458Z,99812.78
2023-02-04T21:22:38.114Z,99814.41
2023-02-04T21:25:58.528Z,99804.09
2023-02-04T21:29:19.137Z,99828.03
2023-02-04T21:32:42.330Z,99832.34
2023-02-04T21:36:05.533Z,99812.53
2023-02-04T21:39:25.930Z,99828.84
2023-02-04T21:42:46.720Z,99828.81
2023-02-04T21:46:07.217Z,99838.97
2023-02-04T21:49:27.815Z,99833.00
2023-02-04T21:52:52.256Z,99838.06
2023-02-04T21:56:14.412Z,99828.50
2023-02-04T21:59:34.901Z,99828.63
2023-02-04T22:02:57.422Z,99839.81
2023-02-04T22:06:17.758Z,99829.44
2023-02-04T22:09:40.917Z,99844.88
2023-02-04T22:13:01.191Z,99860.31
2023-02-04T22:16:21.600Z,99860.31
2023-02-04T22:19:41.954Z,99869.69
2023-02-04T22:23:02.270Z,99862.06
2023-02-04T22:26:28.489Z,99862.16
2023-02-04T22:29:48.967Z,99863.91
2023-02-04T22:33:11.579Z,99882.91
2023-02-04T22:36:31.961Z,99886.34
2023-02-04T22:39:53.316Z,99881.16
2023-02-04T22:43:16.385Z,99891.47
2023-02-04T22:46:36.821Z,99901.84
2023-02-04T22:49:57.210Z,99900.25
2023-02-04T22:53:17.541Z,99896.84
2023-02-04T22:56:37.894Z,99893.44
2023-02-04T23:00:01.329Z,99896.84
2023-02-04T23:03:21.619Z,99912.25
2023-02-04T23:06:42.018Z,99906.22
2023-02-04T23:10:03.051Z,99901.94
2023-02-04T23:13:23.608Z,99902.81
2023-02-04T23:16:47.277Z,99906.22
2023-02-04T23:20:08.997Z,99907.19
2023-02-04T23:23:31.744Z,99908.06
2023-02-04T23:26:52.148Z,99901.28
2023-02-04T23:30:13.838Z,99913.38
2023-02-04T23:33:37.152Z,99901.38
2023-02-04T23:36:57.539Z,99923.75
2023-02-04T23:40:18.128Z,99916.72
2023-02-04T23:43:38.464Z,99907.31
2023-02-04T23:46:59.025Z,99910.78
2023-02-04T23:50:22.783Z,99909.16
2023-02-04T23:53:43.124Z,99898.00
2023-02-04T23:57:04.114Z,99904.00
